createdAt,value
2019-05-11T00:00:16.494Z,7.60
2019-05-11T00:02:46.166Z,7.70
2019-05-11T00:05:17.483Z,7.70
2019-05-11T00:07:47.244Z,7.70
2019-05-11T00:10:17.086Z,7.70
2019-05-11T00:12:46.841Z,7.70
2019-05-11T00:15:16.774Z,7.70
2019-05-11T00:17:46.461Z,7.70
2019-05-11T00:20:16.326Z,7.70
2019-05-11T00:22:46.050Z,7.70
2019-05-11T00:25:15.880Z,7.70
2019-05-11T00:27:45.626Z,7.80
2019-05-11T00:30:15.746Z,7.70
2019-05-11T00:32:45.526Z,7.70
2019-05-11T00:35:15.298Z,7.70
2019-05-11T00:37:44.972Z,7.70
2019-05-11T00:40:15.229Z,7.80
2019-05-11T00:42:45.138Z,7.80
2019-05-11T00:45:15.948Z,7.80
2019-05-11T00:47:45.626Z,7.90
2019-05-11T00:50:15.575Z,7.90
2019-05-11T00:52:45.313Z,7.90
2019-05-11T00:55:15.075Z,7.90
2019-05-11T00:57:44.754Z,7.90
2019-05-11T01:00:15.099Z,7.80
2019-05-11T01:02:44.850Z,7.80
2019-05-11T01:05:14.794Z,7.80
2019-05-11T01:07:44.525Z,7.80
2019-05-11T01:10:23.719Z,7.80
2019-05-11T01:12:46.048Z,7.80
2019-05-11T01:15:15.977Z,7.80
2019-05-11T01:17:45.691Z,7.80
2019-05-11T01:20:19.410Z,7.70
2019-05-11T01:22:49.126Z,7.70
2019-05-11T01:25:18.903Z,7.60
2019-05-11T01:27:48.599Z,7.60
2019-05-11T01:30:18.430Z,7.60
2019-05-11T01:32:48.131Z,7.60
2019-05-11T01:35:17.990Z,7.50
2019-05-11T01:37:47.749Z,7.50
2019-05-11T01:40:18.570Z,7.50
2019-05-11T01:42:48.399Z,7.40
2019-05-11T01:45:18.236Z,7.30
2019-05-11T01:47:48.063Z,7.20
2019-05-11T01:50:17.735Z,7.10
2019-05-11T01:52:48.410Z,7.10
2019-05-11T01:55:18.094Z,7.00
2019-05-11T01:57:47.893Z,6.90
2019-05-11T02:00:17.865Z,6.90
2019-05-11T02:02:47.541Z,6.80
2019-05-11T02:05:29.937Z,6.80
2019-05-11T02:08:01.002Z,6.70
2019-05-11T02:10:31.867Z,6.70
2019-05-11T02:13:02.794Z,6.60
2019-05-11T02:15:32.628Z,6.60
2019-05-11T02:18:02.311Z,6.60
2019-05-11T02:20:32.007Z,6.60
2019-05-11T02:23:01.754Z,6.60
2019-05-11T02:25:32.492Z,6.60
2019-05-11T02:28:02.188Z,6.60
2019-05-11T02:30:31.891Z,6.70
2019-05-11T02:33:01.569Z,6.70
2019-05-11T02:35:31.344Z,6.80
2019-05-11T02:38:01.008Z,6.80
2019-05-11T02:40:31.034Z,6.80
2019-05-11T02:43:00.781Z,6.80
2019-05-11T02:45:39.104Z,6.80
2019-05-11T02:48:08.923Z,6.80
2019-05-11T02:50:39.246Z,6.70
2019-05-11T02:53:09.774Z,6.70
2019-05-11T02:55:39.604Z,6.60
2019-05-11T02:58:09.648Z,6.50
2019-05-11T03:00:44.082Z,6.40
2019-05-11T03:03:14.222Z,6.30
2019-05-11T03:05:43.978Z,6.20
2019-05-11T03:08:13.713Z,6.20
2019-05-11T03:10:43.477Z,6.10
2019-05-11T03:13:13.214Z,6.00
2019-05-11T03:15:43.266Z,5.90
2019-05-11T03:18:12.961Z,5.80
2019-05-11T03:20:42.676Z,5.80
2019-05-11T03:23:12.365Z,5.80
2019-05-11T03:25:42.230Z,5.70
2019-05-11T03:28:11.924Z,5.70
2019-05-11T03:30:41.627Z,5.60
2019-05-11T03:33:11.401Z,5.60
2019-05-11T03:35:41.177Z,5.60
2019-05-11T03:38:10.951Z,5.60
2019-05-11T03:40:40.798Z,5.60
2019-05-11T03:43:10.543Z,5.50
2019-05-11T03:45:40.318Z,5.50
2019-05-11T03:48:10.147Z,5.50
2019-05-11T03:50:39.860Z,5.50
2019-05-11T03:53:09.523Z,5.50
2019-05-11T03:55:39.207Z,5.50
2019-05-11T03:58:08.877Z,5.50
2019-05-11T04:00:38.556Z,5.50
2019-05-11T04:03:08.256Z,5.40
2019-05-11T04:05:37.944Z,5.50
2019-05-11T04:08:07.622Z,5.50
2019-05-11T04:10:37.369Z,5.50
2019-05-11T04:13:08.214Z,5.50
2019-05-11T04:15:38.876Z,5.50
2019-05-11T04:18:08.542Z,5.50
2019-05-11T04:20:38.307Z,5.50
2019-05-11T04:23:07.984Z,5.50
2019-05-11T04:25:37.671Z,5.50
2019-05-11T04:28:07.392Z,5.60
2019-05-11T04:30:37.356Z,5.60
2019-05-11T04:33:07.104Z,5.60
2019-05-11T04:35:36.884Z,5.60
2019-05-11T04:38:06.635Z,5.60
2019-05-11T04:40:36.331Z,5.60
2019-05-11T04:43:06.020Z,5.60
2019-05-11T04:45:35.710Z,5.70
2019-05-11T04:48:05.468Z,5.80
2019-05-11T04:50:35.275Z,5.80
2019-05-11T04:53:04.968Z,5.80
2019-05-11T04:55:34.727Z,5.90
2019-05-11T04:58:04.686Z,5.90
2019-05-11T05:00:34.423Z,6.00
2019-05-11T05:03:05.721Z,6.10
2019-05-11T05:05:35.406Z,6.10
2019-05-11T05:08:09.724Z,6.20
2019-05-11T05:10:36.554Z,6.40
2019-05-11T05:13:10.554Z,6.50
2019-05-11T05:15:37.733Z,6.60
2019-05-11T05:18:07.402Z,6.80
2019-05-11T05:20:37.096Z,6.90
2019-05-11T05:23:06.818Z,7.00
2019-05-11T05:25:36.643Z,7.10
2019-05-11T05:28:06.456Z,7.20
2019-05-11T05:30:36.132Z,7.20
2019-05-11T05:33:05.950Z,7.30
2019-05-11T05:35:35.815Z,7.40
2019-05-11T05:38:05.499Z,7.40
2019-05-11T05:40:35.174Z,7.50
2019-05-11T05:43:04.938Z,7.60
2019-05-11T05:45:34.614Z,7.70
2019-05-11T05:48:05.333Z,7.80
2019-05-11T05:50:35.086Z,7.80
2019-05-11T05:53:04.854Z,7.90
2019-05-11T05:55:34.602Z,7.90
2019-05-11T05:58:04.367Z,8.00
2019-05-11T06:00:34.054Z,8.10
2019-05-11T06:03:03.813Z,8.10
2019-05-11T06:05:33.734Z,8.20
2019-05-11T06:08:03.499Z,8.20
2019-05-11T06:10:33.185Z,8.30
2019-05-11T06:13:02.870Z,8.40
2019-05-11T06:15:32.589Z,8.50
2019-05-11T06:18:02.405Z,8.70
2019-05-11T06:20:32.152Z,9.10
2019-05-11T06:23:01.927Z,9.60
2019-05-11T06:25:31.763Z,10.00
2019-05-11T06:28:01.474Z,10.50
2019-05-11T06:30:31.223Z,10.90
2019-05-11T06:33:00.902Z,11.20
2019-05-11T06:35:30.811Z,11.50
2019-05-11T06:38:00.500Z,11.80
2019-05-11T06:40:30.178Z,12.00
2019-05-11T06:42:59.953Z,12.40
2019-05-11T06:45:29.762Z,12.60
2019-05-11T06:47:59.610Z,12.80
2019-05-11T06:50:29.310Z,13.00
2019-05-11T06:52:59.158Z,13.30
2019-05-11T06:55:28.879Z,13.60
2019-05-11T06:57:58.860Z,13.90
2019-05-11T07:00:30.376Z,14.10
2019-05-11T07:03:00.148Z,14.30
2019-05-11T07:05:29.860Z,14.60
2019-05-11T07:07:59.568Z,14.70
2019-05-11T07:10:29.279Z,15.00
2019-05-11T07:12:58.965Z,15.20
2019-05-11T07:15:28.650Z,15.40
2019-05-11T07:17:58.399Z,15.50
2019-05-11T07:20:28.089Z,15.60
2019-05-11T07:22:58.018Z,15.70
2019-05-11T07:25:27.994Z,15.90
2019-05-11T07:27:57.854Z,16.10
2019-05-11T07:30:27.635Z,16.30
2019-05-11T07:32:58.150Z,16.60
2019-05-11T07:35:28.879Z,16.90
2019-05-11T07:37:58.634Z,17.20
2019-05-11T07:40:28.404Z,17.30
2019-05-11T07:42:58.918Z,17.40
2019-05-11T07:45:28.800Z,17.50
2019-05-11T07:47:59.145Z,17.50
2019-05-11T07:50:28.999Z,17.40
2019-05-11T07:52:59.044Z,17.40
2019-05-11T07:55:28.851Z,17.30
2019-05-11T07:57:58.751Z,17.20
2019-05-11T08:00:28.842Z,17.10
2019-05-11T08:02:58.701Z,17.20
2019-05-11T08:05:28.584Z,17.30
2019-05-11T08:07:59.503Z,17.20
2019-05-11T08:10:29.972Z,17.30
2019-05-11T08:12:59.750Z,17.50
2019-05-11T08:15:29.519Z,17.30
2019-05-11T08:17:59.206Z,17.20
2019-05-11T08:20:28.983Z,17.20
2019-05-11T08:22:58.843Z,17.00
2019-05-11T08:25:28.785Z,17.00
2019-05-11T08:27:59.855Z,16.70
2019-05-11T08:30:29.700Z,16.10
2019-05-11T08:32:59.947Z,15.50
2019-05-11T08:35:31.344Z,15.40
2019-05-11T08:38:01.161Z,15.30
2019-05-11T08:40:31.018Z,15.40
2019-05-11T08:43:00.848Z,15.60
2019-05-11T08:45:30.630Z,15.80
2019-05-11T08:48:00.432Z,15.80
2019-05-11T08:50:30.172Z,15.90
2019-05-11T08:52:59.974Z,15.80
2019-05-11T08:55:29.719Z,15.70
2019-05-11T08:57:59.583Z,15.70
2019-05-11T09:00:29.275Z,15.60
2019-05-11T09:02:58.954Z,15.60
2019-05-11T09:05:28.667Z,15.80
2019-05-11T09:07:58.374Z,15.90
2019-05-11T09:10:28.381Z,15.90
2019-05-11T09:12:59.181Z,15.90
2019-05-11T09:15:36.259Z,16.00
2019-05-11T09:18:00.509Z,16.20
2019-05-11T09:20:30.184Z,16.20
2019-05-11T09:23:00.027Z,16.30
2019-05-11T09:25:30.987Z,16.40
2019-05-11T09:28:00.708Z,16.60
2019-05-11T09:30:30.547Z,16.60
2019-05-11T09:33:00.275Z,16.50
2019-05-11T09:35:30.244Z,16.50
2019-05-11T09:38:00.027Z,16.50
2019-05-11T09:40:29.799Z,16.60
2019-05-11T09:42:59.487Z,16.70
2019-05-11T09:45:44.348Z,16.70
2019-05-11T09:48:00.694Z,16.60
2019-05-11T09:50:30.534Z,16.60
2019-05-11T09:53:00.225Z,16.50
2019-05-11T09:55:29.907Z,16.50
2019-05-11T09:57:59.635Z,16.50
2019-05-11T10:00:30.474Z,16.40
2019-05-11T10:03:00.246Z,16.30
2019-05-11T10:05:29.919Z,16.30
2019-05-11T10:07:59.639Z,16.50
2019-05-11T10:10:29.486Z,16.50
2019-05-11T10:12:59.261Z,16.70
2019-05-11T10:15:29.006Z,16.90
2019-05-11T10:18:00.078Z,17.20
2019-05-11T10:20:29.783Z,17.50
2019-05-11T10:22:59.546Z,17.70
2019-05-11T10:25:29.227Z,17.90
2019-05-11T10:27:58.998Z,17.90
2019-05-11T10:30:28.783Z,17.70
2019-05-11T10:32:58.660Z,17.50
2019-05-11T10:35:29.015Z,17.20
2019-05-11T10:37:58.931Z,16.80
2019-05-11T10:40:28.795Z,16.40
2019-05-11T10:42:59.073Z,16.30
2019-05-11T10:45:28.968Z,16.40
2019-05-11T10:48:01.126Z,16.70
2019-05-11T10:50:30.135Z,16.90
2019-05-11T10:52:59.836Z,17.00
2019-05-11T10:55:29.599Z,16.80
2019-05-11T10:58:00.350Z,16.60
2019-05-11T11:00:30.294Z,16.60
2019-05-11T11:03:00.056Z,16.60
2019-05-11T11:05:29.734Z,16.80
2019-05-11T11:07:59.810Z,16.80
2019-05-11T11:10:29.562Z,16.70
2019-05-11T11:12:59.406Z,16.70
2019-05-11T11:15:29.224Z,17.00
2019-05-11T11:17:59.018Z,17.20
2019-05-11T11:20:28.866Z,17.20
2019-05-11T11:22:59.150Z,17.30
2019-05-11T11:25:28.844Z,17.50
2019-05-11T11:27:58.564Z,17.60
2019-05-11T11:30:28.740Z,17.40
2019-05-11T11:32:59.251Z,17.30
2019-05-11T11:35:28.993Z,17.10
2019-05-11T11:37:58.750Z,17.10
2019-05-11T11:40:28.578Z,17.10
2019-05-11T11:42:58.428Z,17.10
2019-05-11T11:45:28.986Z,17.10
2019-05-11T11:47:58.987Z,17.00
2019-05-11T11:50:28.750Z,17.10
2019-05-11T11:52:58.442Z,17.10
2019-05-11T11:55:28.938Z,17.20
2019-05-11T11:57:59.970Z,17.30
2019-05-11T12:00:29.689Z,17.40
2019-05-11T12:02:59.371Z,17.50
2019-05-11T12:05:29.064Z,17.60
2019-05-11T12:07:58.738Z,17.40
2019-05-11T12:10:28.797Z,17.30
2019-05-11T12:12:59.711Z,17.10
2019-05-11T12:15:29.493Z,17.10
2019-05-11T12:17:59.241Z,17.10
2019-05-11T12:20:28.974Z,17.30
2019-05-11T12:22:58.682Z,17.30
2019-05-11T12:25:29.446Z,17.30
2019-05-11T12:27:59.232Z,17.20
2019-05-11T12:30:28.907Z,17.10
2019-05-11T12:32:59.807Z,17.10
2019-05-11T12:35:29.574Z,17.20
2019-05-11T12:37:59.270Z,17.10
2019-05-11T12:40:29.035Z,17.10
2019-05-11T12:42:59.174Z,17.10
2019-05-11T12:45:29.636Z,17.10
2019-05-11T12:47:59.582Z,17.00
2019-05-11T12:50:29.415Z,17.10
2019-05-11T12:52:59.103Z,17.00
2019-05-11T12:55:28.899Z,16.90
2019-05-11T12:57:59.726Z,16.90
2019-05-11T13:00:31.412Z,16.90
2019-05-11T13:03:01.858Z,16.90
2019-05-11T13:05:31.551Z,16.90
2019-05-11T13:08:01.252Z,16.90
2019-05-11T13:10:30.966Z,17.00
2019-05-11T13:13:02.659Z,17.00
2019-05-11T13:15:32.250Z,16.90
2019-05-11T13:18:01.935Z,16.90
2019-05-11T13:20:31.614Z,17.00
2019-05-11T13:23:01.318Z,17.00
2019-05-11T13:25:31.007Z,17.10
2019-05-11T13:28:00.694Z,17.20
2019-05-11T13:30:30.450Z,17.10
2019-05-11T13:33:00.229Z,17.10
2019-05-11T13:35:29.924Z,17.20
2019-05-11T13:38:00.083Z,17.20
2019-05-11T13:40:29.830Z,17.30
2019-05-11T13:42:59.526Z,17.40
2019-05-11T13:45:29.276Z,17.30
2019-05-11T13:47:59.961Z,17.30
2019-05-11T13:50:29.844Z,17.30
2019-05-11T13:53:00.642Z,17.30
2019-05-11T13:55:30.330Z,17.50
2019-05-11T13:58:00.007Z,17.50
2019-05-11T14:00:29.860Z,17.70
2019-05-11T14:03:02.027Z,17.90
2019-05-11T14:05:31.834Z,18.20
2019-05-11T14:08:01.534Z,18.50
2019-05-11T14:10:32.294Z,18.50
2019-05-11T14:13:02.098Z,18.80
2019-05-11T14:15:31.766Z,19.10
2019-05-11T14:20:33.274Z,20.00
2019-05-11T14:23:02.987Z,20.40
2019-05-11T14:25:32.742Z,20.50
2019-05-11T14:28:02.495Z,20.70
2019-05-11T14:30:32.315Z,20.80
2019-05-11T14:32:21.264Z,19.50
2019-05-11T14:33:02.158Z,21.20
2019-05-11T14:35:31.906Z,21.60
2019-05-11T14:38:01.610Z,21.60
2019-05-11T14:40:31.294Z,21.90
2019-05-11T14:43:01.004Z,22.20
2019-05-11T14:45:30.666Z,22.20
2019-05-11T14:48:00.423Z,21.90
2019-05-11T14:50:30.179Z,21.60
2019-05-11T14:52:59.939Z,21.80
2019-05-11T14:55:29.709Z,22.00
2019-05-11T14:57:59.499Z,21.30
2019-05-11T15:00:29.258Z,20.90
2019-05-11T15:02:59.075Z,21.60
2019-05-11T15:05:28.734Z,21.60
2019-05-11T15:07:58.625Z,21.70
2019-05-11T15:10:28.334Z,22.30
2019-05-11T15:12:59.099Z,22.60
2019-05-11T15:15:29.008Z,22.90
2019-05-11T15:17:59.121Z,23.10
2019-05-11T15:20:29.057Z,22.80
2019-05-11T15:22:58.766Z,21.90
2019-05-11T15:25:29.004Z,21.90
2019-05-11T15:27:58.890Z,22.00
2019-05-11T15:30:28.951Z,22.70
2019-05-11T15:32:58.726Z,23.40
2019-05-11T15:35:28.702Z,24.00
2019-05-11T15:37:58.540Z,24.30
2019-05-11T15:40:28.312Z,24.40
2019-05-11T15:42:58.541Z,23.80
2019-05-11T15:45:28.600Z,23.70
2019-05-11T15:47:58.940Z,24.20
2019-05-11T15:50:29.345Z,24.90
2019-05-11T15:53:00.178Z,25.20
2019-05-11T15:55:30.015Z,25.40
2019-05-11T15:57:59.720Z,25.90
2019-05-11T16:00:29.626Z,26.30
2019-05-11T16:02:59.366Z,25.90
2019-05-11T16:05:29.138Z,25.70
2019-05-11T16:08:01.723Z,25.70
2019-05-11T16:10:30.418Z,25.60
2019-05-11T16:13:00.090Z,25.60
2019-05-11T16:15:29.987Z,25.90
2019-05-11T16:17:59.693Z,25.70
2019-05-11T16:20:29.399Z,25.30
2019-05-11T16:22:59.087Z,24.60
2019-05-11T16:25:28.783Z,24.10
2019-05-11T16:27:58.452Z,23.90
2019-05-11T16:30:28.909Z,23.50
2019-05-11T16:32:58.737Z,22.30
2019-05-11T16:35:28.525Z,21.40
2019-05-11T16:37:59.199Z,21.20
2019-05-11T16:40:29.668Z,21.40
2019-05-11T16:42:59.592Z,20.90
2019-05-11T16:45:29.543Z,20.20
2019-05-11T16:47:59.234Z,19.40
2019-05-11T16:50:28.924Z,19.00
2019-05-11T16:52:58.718Z,18.60
2019-05-11T16:55:28.374Z,18.50
2019-05-11T16:57:58.780Z,18.20
2019-05-11T17:00:28.858Z,17.80
2019-05-11T17:02:58.557Z,17.50
2019-05-11T17:05:33.292Z,17.30
2019-05-11T17:07:59.711Z,17.10
2019-05-11T17:10:29.540Z,16.80
2019-05-11T17:12:59.226Z,16.70
2019-05-11T17:15:29.044Z,16.60
2019-05-11T17:17:58.908Z,16.50
2019-05-11T17:20:28.696Z,16.30
2019-05-11T17:22:58.458Z,16.10
2019-05-11T17:25:28.815Z,16.00
2019-05-11T17:27:58.868Z,16.10
2019-05-11T17:30:28.703Z,16.40
2019-05-11T17:32:59.348Z,16.50
2019-05-11T17:35:29.230Z,16.80
2019-05-11T17:37:59.115Z,17.00
2019-05-11T17:40:28.890Z,17.10
2019-05-11T17:42:58.658Z,17.30
2019-05-11T17:45:28.388Z,17.40
2019-05-11T17:47:58.388Z,17.50
2019-05-11T17:50:28.347Z,17.60
2019-05-11T17:52:58.205Z,17.50
2019-05-11T17:55:28.660Z,17.50
2019-05-11T17:57:58.652Z,17.30
2019-05-11T18:00:28.584Z,17.00
2019-05-11T18:02:58.507Z,16.60
2019-05-11T18:05:28.400Z,16.10
2019-05-11T18:07:58.117Z,15.60
2019-05-11T18:10:28.311Z,15.20
2019-05-11T18:12:59.490Z,14.80
2019-05-11T18:15:29.243Z,14.30
2019-05-11T18:17:59.036Z,14.00
2019-05-11T18:20:28.864Z,13.70
2019-05-11T18:23:00.562Z,13.50
2019-05-11T18:25:30.259Z,13.50
2019-05-11T18:28:00.115Z,13.40
2019-05-11T18:30:29.880Z,13.40
2019-05-11T18:32:59.832Z,13.30
2019-05-11T18:35:29.758Z,13.30
2019-05-11T18:37:59.442Z,13.10
2019-05-11T18:40:29.150Z,12.90
2019-05-11T18:43:00.308Z,12.70
2019-05-11T18:45:30.075Z,12.60
2019-05-11T18:47:59.750Z,12.40
2019-05-11T18:50:31.155Z,12.20
2019-05-11T18:53:00.981Z,12.10
2019-05-11T18:55:30.681Z,12.00
2019-05-11T18:58:01.546Z,12.00
2019-05-11T19:00:31.247Z,11.90
2019-05-11T19:03:01.155Z,11.80
2019-05-11T19:05:30.954Z,11.60
2019-05-11T19:08:00.719Z,11.50
2019-05-11T19:10:30.442Z,11.40
2019-05-11T19:13:00.329Z,11.40
2019-05-11T19:15:30.191Z,11.20
2019-05-11T19:17:59.867Z,11.20
2019-05-11T19:20:44.248Z,11.10
2019-05-11T19:23:01.115Z,11.00
2019-05-11T19:25:30.944Z,10.80
2019-05-11T19:28:00.643Z,10.70
2019-05-11T19:30:30.325Z,10.70
2019-05-11T19:33:00.226Z,10.70
2019-05-11T19:35:30.758Z,10.70
2019-05-11T19:38:00.479Z,10.70
2019-05-11T19:40:31.228Z,10.70
2019-05-11T19:43:01.074Z,10.60
2019-05-11T19:45:30.833Z,10.60
2019-05-11T19:48:00.546Z,10.50
2019-05-11T19:50:30.312Z,10.40
2019-05-11T19:53:00.062Z,10.30
2019-05-11T19:55:29.744Z,10.20
2019-05-11T19:57:59.458Z,10.10
2019-05-11T20:00:29.308Z,10.00
2019-05-11T20:02:59.163Z,10.00
2019-05-11T20:05:29.038Z,9.80
2019-05-11T20:07:59.009Z,9.70
2019-05-11T20:10:28.810Z,9.70
2019-05-11T20:12:58.951Z,9.70
2019-05-11T20:15:29.810Z,9.70
2019-05-11T20:17:59.494Z,9.60
2019-05-11T20:20:29.266Z,9.50
2019-05-11T20:23:00.578Z,9.40
2019-05-11T20:25:30.418Z,9.30
2019-05-11T20:28:00.159Z,9.20
2019-05-11T20:30:29.854Z,9.20
2019-05-11T20:32:59.614Z,9.10
2019-05-11T20:35:32.313Z,9.10
2019-05-11T20:38:00.800Z,9.00
2019-05-11T20:40:30.574Z,8.90
2019-05-11T20:43:00.525Z,8.80
2019-05-11T20:45:30.206Z,8.80
2019-05-11T20:47:59.915Z,8.80
2019-05-11T20:50:29.710Z,8.70
2019-05-11T20:52:59.936Z,8.70
2019-05-11T20:55:29.610Z,8.70
2019-05-11T20:57:59.283Z,8.70
2019-05-11T21:00:29.038Z,8.70
2019-05-11T21:02:58.998Z,8.70
2019-05-11T21:05:29.930Z,8.60
2019-05-11T21:07:59.602Z,8.60
2019-05-11T21:10:29.298Z,8.60
2019-05-11T21:12:59.003Z,8.60
2019-05-11T21:15:28.802Z,8.60
2019-05-11T21:17:58.763Z,8.50
2019-05-11T21:20:28.962Z,8.40
2019-05-11T21:22:58.776Z,8.40
2019-05-11T21:25:28.847Z,8.40
2019-05-11T21:28:08.298Z,8.30
2019-05-11T21:30:39.728Z,8.30
2019-05-11T21:33:08.827Z,8.20
2019-05-11T21:35:38.716Z,8.20
2019-05-11T21:38:08.513Z,8.20
2019-05-11T21:40:38.312Z,8.30
2019-05-11T21:43:08.719Z,8.20
2019-05-11T21:45:40.744Z,8.20
2019-05-11T21:48:10.127Z,8.20
2019-05-11T21:50:39.887Z,8.10
2019-05-11T21:53:10.726Z,8.00
2019-05-11T21:55:41.829Z,8.00
2019-05-11T21:58:11.509Z,8.00
2019-05-11T22:00:42.017Z,8.00
2019-05-11T22:03:13.730Z,8.00
2019-05-11T22:05:45.183Z,7.90
2019-05-11T22:08:17.865Z,7.90
2019-05-11T22:10:47.771Z,7.90
2019-05-11T22:13:17.709Z,7.90
2019-05-11T22:15:48.838Z,7.90
2019-05-11T22:18:30.649Z,7.90
2019-05-11T22:20:49.989Z,8.00
2019-05-11T22:23:19.742Z,8.10
2019-05-11T22:25:50.652Z,8.10
2019-05-11T22:28:20.790Z,8.10
2019-05-11T22:30:50.543Z,8.20
2019-05-11T22:33:20.234Z,8.20
2019-05-11T22:35:50.082Z,8.00
2019-05-11T22:38:19.769Z,8.00
2019-05-11T22:40:49.510Z,8.00
2019-05-11T22:43:20.815Z,7.90
2019-05-11T22:45:50.494Z,7.90
2019-05-11T22:48:20.181Z,7.90
2019-05-11T22:50:50.635Z,7.90
2019-05-11T22:53:20.646Z,8.00
2019-05-11T22:55:50.390Z,8.00
2019-05-11T22:58:20.141Z,8.10
2019-05-11T23:00:49.908Z,8.20
2019-05-11T23:03:22.665Z,8.20
2019-05-11T23:05:51.170Z,8.20
2019-05-11T23:08:20.954Z,8.30
2019-05-11T23:10:50.799Z,8.30
2019-05-11T23:13:20.482Z,8.30
2019-05-11T23:15:50.183Z,8.20
2019-05-11T23:18:19.882Z,8.20
2019-05-11T23:20:49.604Z,8.10
2019-05-11T23:23:19.439Z,8.00
2019-05-11T23:25:49.111Z,7.90
2019-05-11T23:28:18.855Z,7.80
2019-05-11T23:30:48.622Z,7.80
2019-05-11T23:33:18.496Z,7.80
2019-05-11T23:35:48.592Z,7.80
2019-05-11T23:38:18.387Z,7.90
2019-05-11T23:40:49.118Z,7.80
2019-05-11T23:43:19.282Z,7.70
2019-05-11T23:45:49.154Z,7.60
2019-05-11T23:48:18.846Z,7.60
2019-05-11T23:50:48.585Z,7.60
2019-05-11T23:53:18.354Z,7.60
2019-05-11T23:55:48.415Z,7.70
2019-05-11T23:58:19.353Z,7.70
